Ellisgrove, Illinois
Current Conditions -  °F | °C
As of 11:35 AM on Friday 21 Nov 2014 (Local Time) from KSAR Reporting Station
Clear Clear  
Wind Chill: 30°   Ceiling: Unl
Heat Index: 38°   Visibility: 10mi
Dew Point: 20°   Wind: 12mph
Humidity: 50%   Direction: 130°SE
Pressure: 30.41"   Gusts: NA
Location:  38.0084°N, 89.9007°W
Report Text: KSAR 211735Z AUTO 13010KT 10SM CLR 03/M06 A3041 RMK AO2 T00321064
Loading
Personal Weather Stations






























Interactive Weather Map New forecast layout! Learn more

10-Day Weather Forecast

Advertisements
Track Severe Weather on mobile